createdAt,value
2024-04-24T00:02:11.943Z,7.88
2024-04-24T00:04:42.012Z,9.25
2024-04-24T00:07:12.185Z,7.63
2024-04-24T00:09:45.048Z,6.80
2024-04-24T00:12:15.138Z,7.82
2024-04-24T00:14:45.201Z,7.20
2024-04-24T00:17:15.766Z,9.40
2024-04-24T00:19:45.998Z,8.10
2024-04-24T00:22:16.144Z,7.25
2024-04-24T00:24:48.856Z,8.57
2024-04-24T00:27:18.931Z,6.28
2024-04-24T00:29:48.975Z,8.40
2024-04-24T00:32:19.161Z,5.50
2024-04-24T00:34:49.356Z,7.38
2024-04-24T00:37:19.505Z,7.47
2024-04-24T00:39:52.242Z,9.77
2024-04-24T00:42:23.072Z,16.13
2024-04-24T00:44:50.594Z,6.03
2024-04-24T00:47:22.913Z,6.13
2024-04-24T00:49:54.628Z,9.52
2024-04-24T00:52:24.804Z,6.47
2024-04-24T00:54:58.019Z,8.13
2024-04-24T00:57:28.912Z,5.72
2024-04-24T00:59:59.025Z,7.88
2024-04-24T01:02:26.874Z,15.07
2024-04-24T01:04:56.922Z,7.85
2024-04-24T01:07:27.238Z,10.88
2024-04-24T01:09:59.953Z,9.10
2024-04-24T01:12:30.022Z,10.23
2024-04-24T01:15:00.282Z,8.70
2024-04-24T01:17:31.242Z,6.80
2024-04-24T01:20:03.595Z,9.82
2024-04-24T01:22:56.727Z,6.13
2024-04-24T01:25:36.018Z,8.55
2024-04-24T01:28:09.147Z,6.88
2024-04-24T01:30:39.221Z,9.27
2024-04-24T01:33:09.328Z,8.45
2024-04-24T01:35:36.875Z,7.85
2024-04-24T01:38:07.267Z,8.05
2024-04-24T01:40:37.438Z,9.18
2024-04-24T01:43:10.264Z,5.38
2024-04-24T01:45:40.313Z,6.20
2024-04-24T01:48:11.047Z,6.28
2024-04-24T01:50:41.170Z,5.47
2024-04-24T01:53:11.289Z,8.73
2024-04-24T01:55:41.394Z,7.78
2024-04-24T01:58:14.148Z,10.40
2024-04-24T02:00:44.311Z,7.05
2024-04-24T02:03:14.515Z,8.15
2024-04-24T02:05:44.626Z,8.50
2024-04-24T02:08:14.757Z,7.22
2024-04-24T02:10:44.953Z,7.30
2024-04-24T02:13:17.736Z,10.93
2024-04-24T02:15:47.786Z,7.55
2024-04-24T02:18:17.978Z,8.13
2024-04-24T02:20:48.103Z,9.23
2024-04-24T02:23:22.075Z,5.38
2024-04-24T02:25:50.224Z,7.90
2024-04-24T02:28:23.076Z,8.75
2024-04-24T02:30:53.119Z,7.80
2024-04-24T02:33:23.254Z,12.90
2024-04-24T02:35:53.393Z,8.98
2024-04-24T02:38:23.580Z,7.63
2024-04-24T02:40:53.782Z,7.78
2024-04-24T02:43:26.540Z,9.75
2024-04-24T02:45:57.533Z,9.15
2024-04-24T02:48:27.722Z,8.98
2024-04-24T02:50:57.831Z,8.30
2024-04-24T02:53:27.907Z,8.88
2024-04-24T02:55:58.034Z,8.15
2024-04-24T02:58:30.788Z,7.20
2024-04-24T03:01:00.891Z,6.85
2024-04-24T03:03:31.036Z,8.55
2024-04-24T03:06:01.122Z,9.23
2024-04-24T03:08:31.202Z,8.57
2024-04-24T03:10:58.783Z,7.32
2024-04-24T03:13:31.541Z,9.80
2024-04-24T03:16:01.654Z,9.60
2024-04-24T03:18:31.770Z,7.80
2024-04-24T03:21:01.956Z,7.65
2024-04-24T03:23:32.040Z,7.95
2024-04-24T03:26:02.097Z,7.47
2024-04-24T03:28:34.803Z,9.13
2024-04-24T03:31:02.270Z,6.75
2024-04-24T03:33:32.403Z,7.40
2024-04-24T03:36:02.506Z,12.00
2024-04-24T03:38:32.635Z,9.73
2024-04-24T03:41:02.778Z,13.57
2024-04-24T03:43:35.499Z,10.95
2024-04-24T03:46:05.654Z,10.75
2024-04-24T03:48:37.421Z,10.50
2024-04-24T03:51:08.396Z,10.10
2024-04-24T03:53:38.464Z,10.05
2024-04-24T03:56:08.697Z,9.55
2024-04-24T03:58:38.821Z,10.27
2024-04-24T04:01:08.930Z,11.63
2024-04-24T04:03:39.393Z,10.02
2024-04-24T04:06:09.603Z,12.00
2024-04-24T04:08:39.702Z,13.88
2024-04-24T04:11:09.851Z,15.55
2024-04-24T04:13:42.707Z,12.02
2024-04-24T04:16:13.090Z,12.52
2024-04-24T04:18:43.299Z,20.02
2024-04-24T04:21:14.793Z,25.52
2024-04-24T04:23:44.921Z,60.75
2024-04-24T04:26:15.132Z,63.60
2024-04-24T04:28:48.024Z,64.82
2024-04-24T04:31:18.065Z,55.28
2024-04-24T04:33:48.258Z,60.53
2024-04-24T04:36:18.326Z,58.95
2024-04-24T04:38:48.413Z,35.97
2024-04-24T04:41:18.573Z,30.23
2024-04-24T04:43:51.309Z,28.75
2024-04-24T04:46:21.478Z,32.35
2024-04-24T04:48:53.340Z,32.20
2024-04-24T04:51:23.549Z,39.03
2024-04-24T04:53:54.578Z,51.15
2024-04-24T04:56:27.058Z,58.25
2024-04-24T04:58:59.877Z,59.60
2024-04-24T05:01:30.543Z,54.30
2024-04-24T05:04:00.680Z,23.58
2024-04-24T05:06:30.957Z,27.85
2024-04-24T05:09:01.157Z,21.02
2024-04-24T05:11:31.241Z,20.15
2024-04-24T05:14:04.004Z,23.77
2024-04-24T05:16:34.107Z,16.60
2024-04-24T05:19:04.440Z,19.27
2024-04-24T05:21:34.695Z,22.98
2024-04-24T05:24:04.804Z,13.73
2024-04-24T05:26:50.737Z,18.23
2024-04-24T05:29:23.685Z,18.58
2024-04-24T05:31:53.765Z,18.85
2024-04-24T05:34:24.751Z,14.30
2024-04-24T05:36:54.832Z,14.13
2024-04-24T05:39:24.930Z,13.85
2024-04-24T05:41:55.043Z,13.80
2024-04-24T05:44:29.250Z,19.00
2024-04-24T05:46:59.383Z,22.85
2024-04-24T05:49:29.456Z,16.70
2024-04-24T05:51:59.956Z,13.52
2024-04-24T05:54:30.051Z,15.65
2024-04-24T05:57:00.081Z,11.27
2024-04-24T05:59:32.949Z,14.55
2024-04-24T06:02:03.041Z,12.00
2024-04-24T06:04:33.152Z,14.73
2024-04-24T06:07:03.224Z,11.15
2024-04-24T06:09:33.255Z,10.65
2024-04-24T06:12:03.451Z,6.85
2024-04-24T06:14:36.308Z,6.95
2024-04-24T06:17:06.355Z,7.50
2024-04-24T06:19:36.412Z,8.63
2024-04-24T06:22:06.517Z,6.33
2024-04-24T06:24:36.643Z,4.60
2024-04-24T06:27:06.803Z,10.57
2024-04-24T06:29:36.876Z,3.67
2024-04-24T06:32:07.194Z,3.93
2024-04-24T06:34:37.300Z,4.97
2024-04-24T06:37:07.458Z,3.30
2024-04-24T06:39:37.519Z,4.07
2024-04-24T06:42:09.571Z,6.13
2024-04-24T06:44:42.389Z,6.00
2024-04-24T06:47:12.691Z,8.70
2024-04-24T06:49:42.740Z,5.67
2024-04-24T06:52:12.825Z,6.40
2024-04-24T06:54:42.876Z,5.27
2024-04-24T06:57:12.928Z,5.60
2024-04-24T06:59:46.108Z,3.80
2024-04-24T07:02:16.339Z,4.03
2024-04-24T07:04:46.430Z,5.70
2024-04-24T07:07:18.252Z,4.47
2024-04-24T07:09:50.248Z,3.45
2024-04-24T07:12:20.373Z,4.13
2024-04-24T07:14:53.060Z,4.18
2024-04-24T07:17:23.160Z,3.67
2024-04-24T07:19:53.312Z,5.80
2024-04-24T07:22:23.385Z,3.38
2024-04-24T07:24:53.439Z,5.05
2024-04-24T07:27:23.487Z,6.78
2024-04-24T07:29:56.151Z,10.38
2024-04-24T07:32:26.230Z,5.40
2024-04-24T07:34:56.668Z,5.70
2024-04-24T07:37:26.980Z,5.45
2024-04-24T07:39:57.398Z,4.50
2024-04-24T07:42:27.438Z,6.30
2024-04-24T07:45:00.324Z,5.22
2024-04-24T07:47:30.514Z,6.75
2024-04-24T07:50:00.695Z,4.78
2024-04-24T07:52:30.786Z,7.28
2024-04-24T07:55:00.829Z,7.38
2024-04-24T07:57:30.853Z,8.05
2024-04-24T08:00:00.910Z,7.13
2024-04-24T08:02:31.509Z,10.82
2024-04-24T08:05:01.670Z,12.05
2024-04-24T08:07:31.713Z,7.80
2024-04-24T08:10:01.761Z,5.25
2024-04-24T08:12:31.885Z,6.03
2024-04-24T08:15:04.775Z,5.25
2024-04-24T08:17:34.933Z,22.23
2024-04-24T08:20:05.088Z,12.98
2024-04-24T08:22:35.248Z,5.82
2024-04-24T08:25:05.337Z,18.70
2024-04-24T08:27:35.701Z,7.10
2024-04-24T08:30:09.338Z,6.50
2024-04-24T08:32:39.584Z,11.15
2024-04-24T08:35:10.143Z,11.95
2024-04-24T08:37:40.236Z,9.02
2024-04-24T08:40:11.020Z,5.07
2024-04-24T08:42:41.379Z,11.02
2024-04-24T08:45:19.766Z,6.95
2024-04-24T08:47:50.064Z,7.70
2024-04-24T08:50:20.274Z,4.70
2024-04-24T08:52:54.179Z,4.90
2024-04-24T08:55:25.342Z,3.40
2024-04-24T08:57:56.293Z,8.13
2024-04-24T09:00:30.715Z,4.23
2024-04-24T09:03:07.245Z,10.30
2024-04-24T09:05:39.173Z,5.03
2024-04-24T09:08:10.705Z,9.00
2024-04-24T09:10:41.806Z,4.03
2024-04-24T09:13:14.586Z,68.67
2024-04-24T09:15:49.864Z,5.00
2024-04-24T09:18:22.108Z,4.27
2024-04-24T09:20:53.763Z,6.93
2024-04-24T09:23:27.642Z,5.93
2024-04-24T09:25:59.557Z,7.43
2024-04-24T09:28:29.855Z,9.50
2024-04-24T09:31:06.475Z,5.37
2024-04-24T09:33:36.604Z,4.00
2024-04-24T09:36:07.251Z,4.33
2024-04-24T09:38:37.413Z,4.87
2024-04-24T09:41:07.724Z,5.83
2024-04-24T09:43:37.889Z,7.30
2024-04-24T09:46:10.828Z,8.90
2024-04-24T09:48:41.077Z,6.40
2024-04-24T09:51:11.899Z,3.93
2024-04-24T09:53:42.107Z,3.50
2024-04-24T09:56:19.585Z,9.80
2024-04-24T09:58:53.382Z,6.83
2024-04-24T10:01:26.683Z,5.07
2024-04-24T10:03:58.354Z,7.70
2024-04-24T10:06:29.701Z,7.03
2024-04-24T10:09:01.986Z,5.50
2024-04-24T10:11:37.521Z,6.17
2024-04-24T10:14:09.800Z,7.43
2024-04-24T10:16:43.041Z,12.73
2024-04-24T10:19:14.554Z,8.37
2024-04-24T10:21:44.739Z,7.97
2024-04-24T10:24:17.368Z,8.68
2024-04-24T10:26:48.217Z,6.70
2024-04-24T10:29:20.841Z,9.85
2024-04-24T10:31:58.312Z,7.65
2024-04-24T10:34:29.556Z,11.10
2024-04-24T10:37:00.408Z,10.38
2024-04-24T10:39:30.551Z,7.70
2024-04-24T10:42:01.009Z,6.38
2024-04-24T10:44:31.209Z,7.03
2024-04-24T10:47:04.589Z,5.47
2024-04-24T10:49:34.702Z,3.83
2024-04-24T10:52:05.039Z,4.50
2024-04-24T10:54:36.718Z,4.37
2024-04-24T10:57:10.885Z,4.50
2024-04-24T10:59:41.015Z,5.20
2024-04-24T11:02:15.278Z,5.40
2024-04-24T11:04:45.563Z,6.30
2024-04-24T11:07:28.269Z,3.43
2024-04-24T11:10:07.187Z,5.97
2024-04-24T11:12:40.932Z,13.80
2024-04-24T11:15:20.812Z,10.33
2024-04-24T11:17:57.259Z,7.78
2024-04-24T11:20:29.077Z,7.47
2024-04-24T11:22:59.398Z,7.60
2024-04-24T11:25:34.039Z,7.43
2024-04-24T11:28:06.452Z,9.23
2024-04-24T11:30:36.572Z,7.50
2024-04-24T11:33:09.388Z,9.98
2024-04-24T11:35:39.616Z,6.75
2024-04-24T11:38:09.760Z,7.15
2024-04-24T11:40:44.719Z,8.57
2024-04-24T11:43:14.834Z,7.78
2024-04-24T11:45:46.287Z,7.82
2024-04-24T11:48:19.272Z,5.72
2024-04-24T11:50:55.286Z,7.80
2024-04-24T11:53:25.388Z,12.00
2024-04-24T11:55:55.668Z,5.30
2024-04-24T11:58:27.393Z,5.72
2024-04-24T12:00:57.683Z,4.90
2024-04-24T12:03:30.516Z,4.97
2024-04-24T12:06:02.959Z,5.23
2024-04-24T12:08:33.230Z,4.57
2024-04-24T12:11:04.675Z,6.27
2024-04-24T12:13:35.227Z,4.77
2024-04-24T12:16:06.921Z,8.13
2024-04-24T12:18:39.644Z,5.20
2024-04-24T12:21:09.727Z,5.83
2024-04-24T12:23:40.747Z,9.73
2024-04-24T12:26:11.124Z,6.17
2024-04-24T12:28:41.167Z,8.73
2024-04-24T12:31:11.282Z,7.00
2024-04-24T12:33:44.223Z,6.67
2024-04-24T12:36:15.532Z,5.87
2024-04-24T12:38:45.564Z,11.57
2024-04-24T12:41:15.797Z,7.87
2024-04-24T12:43:45.910Z,9.10
2024-04-24T12:46:16.031Z,8.27
2024-04-24T12:48:56.022Z,6.97
2024-04-24T12:51:26.325Z,6.45
2024-04-24T12:53:56.701Z,8.43
2024-04-24T12:56:28.618Z,5.53
2024-04-24T12:58:58.794Z,7.83
2024-04-24T13:01:28.898Z,7.40
2024-04-24T13:04:02.319Z,4.90
2024-04-24T13:06:34.533Z,5.57
2024-04-24T13:09:04.608Z,8.77
2024-04-24T13:11:34.867Z,12.02
2024-04-24T13:14:05.371Z,7.45
2024-04-24T13:16:35.424Z,11.75
2024-04-24T13:19:08.269Z,9.75
2024-04-24T13:21:38.401Z,9.02
2024-04-24T13:24:09.019Z,11.57
2024-04-24T13:26:39.158Z,9.75
2024-04-24T13:29:09.248Z,9.52
2024-04-24T13:31:39.334Z,12.00
2024-04-24T13:34:12.019Z,8.10
2024-04-24T13:36:42.040Z,10.05
2024-04-24T13:39:12.136Z,9.23
2024-04-24T13:41:42.569Z,8.80
2024-04-24T13:44:15.859Z,8.25
2024-04-24T13:46:46.930Z,6.72
2024-04-24T13:49:19.710Z,8.60
2024-04-24T13:51:49.845Z,11.63
2024-04-24T13:54:19.916Z,7.35
2024-04-24T13:56:51.309Z,6.90
2024-04-24T13:59:21.506Z,9.95
2024-04-24T14:01:52.098Z,10.82
2024-04-24T14:04:24.987Z,6.07
2024-04-24T14:06:55.129Z,10.00
2024-04-24T14:09:25.217Z,5.05
2024-04-24T14:11:55.365Z,7.82
2024-04-24T14:14:25.526Z,8.02
2024-04-24T14:16:55.635Z,9.10
2024-04-24T14:19:28.418Z,7.35
2024-04-24T14:21:58.503Z,10.45
2024-04-24T14:24:28.762Z,12.63
2024-04-24T14:27:01.693Z,6.63
2024-04-24T14:29:31.792Z,9.38
2024-04-24T14:32:01.989Z,10.63
2024-04-24T14:34:34.982Z,7.75
2024-04-24T14:37:06.145Z,7.95
2024-04-24T14:39:37.575Z,7.90
2024-04-24T14:42:08.401Z,9.98
2024-04-24T14:44:38.482Z,5.78
2024-04-24T14:47:08.617Z,7.40
2024-04-24T14:49:41.509Z,6.53
2024-04-24T14:52:11.737Z,7.60
2024-04-24T14:54:41.770Z,6.60
2024-04-24T14:57:11.900Z,5.20
2024-04-24T14:59:41.953Z,6.53
2024-04-24T15:02:12.082Z,5.27
2024-04-24T15:04:44.828Z,5.30
2024-04-24T15:07:14.953Z,6.27
2024-04-24T15:09:45.647Z,8.20
2024-04-24T15:12:15.823Z,5.63
2024-04-24T15:14:45.980Z,5.20
2024-04-24T15:17:16.178Z,5.68
2024-04-24T15:19:49.016Z,5.90
2024-04-24T15:22:19.086Z,5.60
2024-04-24T15:24:49.121Z,7.38
2024-04-24T15:27:19.273Z,7.93
2024-04-24T15:29:49.400Z,6.88
2024-04-24T15:32:19.570Z,5.85
2024-04-24T15:34:52.313Z,9.00
2024-04-24T15:37:22.346Z,7.75
2024-04-24T15:39:52.774Z,8.13
2024-04-24T15:42:22.831Z,7.18
2024-04-24T15:44:52.944Z,6.70
2024-04-24T15:47:23.276Z,5.80
2024-04-24T15:49:56.039Z,7.05
2024-04-24T15:52:26.108Z,6.60
2024-04-24T15:54:56.124Z,12.40
2024-04-24T15:57:26.200Z,8.27
2024-04-24T15:59:56.332Z,9.00
2024-04-24T16:02:26.503Z,6.93
2024-04-24T16:04:59.425Z,8.15
2024-04-24T16:07:29.537Z,7.38
2024-04-24T16:10:00.576Z,6.90
2024-04-24T16:12:30.720Z,6.05
2024-04-24T16:15:00.747Z,10.95
2024-04-24T16:17:30.973Z,13.57
2024-04-24T16:20:03.785Z,7.57
2024-04-24T16:22:33.898Z,10.90
2024-04-24T16:25:03.931Z,7.63
2024-04-24T16:27:34.032Z,8.05
2024-04-24T16:30:04.070Z,8.98
2024-04-24T16:32:36.244Z,7.90
2024-04-24T16:35:09.344Z,6.40
2024-04-24T16:37:39.629Z,9.50
2024-04-24T16:40:11.018Z,5.28
2024-04-24T16:42:41.107Z,6.60
2024-04-24T16:45:11.781Z,6.55
2024-04-24T16:47:41.913Z,8.60
2024-04-24T16:50:15.824Z,8.05
2024-04-24T16:52:45.946Z,10.13
2024-04-24T16:55:16.072Z,9.85
2024-04-24T16:57:46.179Z,8.88
2024-04-24T17:00:16.725Z,7.25
2024-04-24T17:02:46.922Z,6.50
2024-04-24T17:05:22.040Z,5.72
2024-04-24T17:07:52.625Z,5.30
2024-04-24T17:10:23.289Z,9.23
2024-04-24T17:12:53.381Z,5.55
2024-04-24T17:15:23.514Z,5.15
2024-04-24T17:17:53.713Z,4.88
2024-04-24T17:20:26.566Z,5.40
2024-04-24T17:22:56.694Z,10.35
2024-04-24T17:25:27.196Z,5.30
2024-04-24T17:27:57.286Z,8.68
2024-04-24T17:30:27.425Z,9.15
2024-04-24T17:32:57.570Z,7.57
2024-04-24T17:35:31.930Z,5.40
2024-04-24T17:38:04.755Z,7.13
2024-04-24T17:40:36.074Z,5.45
2024-04-24T17:43:06.166Z,6.07
2024-04-24T17:45:36.734Z,8.48
2024-04-24T17:48:09.110Z,5.32
2024-04-24T17:50:41.951Z,6.00
2024-04-24T17:53:12.032Z,4.75
2024-04-24T17:55:45.036Z,7.00
2024-04-24T17:58:15.160Z,4.60
2024-04-24T18:00:45.527Z,5.10
2024-04-24T18:03:15.708Z,5.97
2024-04-24T18:05:49.221Z,5.30
2024-04-24T18:08:19.572Z,4.95
2024-04-24T18:10:49.692Z,5.35
2024-04-24T18:13:19.769Z,5.63
2024-04-24T18:15:50.497Z,5.22
2024-04-24T18:18:21.200Z,4.93
2024-04-24T18:20:54.022Z,5.95
2024-04-24T18:23:24.145Z,5.50
2024-04-24T18:25:54.663Z,5.30
2024-04-24T18:28:24.742Z,6.13
2024-04-24T18:30:54.851Z,7.57
2024-04-24T18:33:28.335Z,7.28
2024-04-24T18:36:01.362Z,5.00
2024-04-24T18:38:32.094Z,8.98
2024-04-24T18:41:02.428Z,8.55
2024-04-24T18:43:32.536Z,26.70
2024-04-24T18:46:02.782Z,15.27
2024-04-24T18:48:33.029Z,11.75
2024-04-24T18:51:05.915Z,11.60
2024-04-24T18:53:36.099Z,9.82
2024-04-24T18:56:07.926Z,10.73
2024-04-24T18:58:38.042Z,7.38
2024-04-24T19:01:08.473Z,8.55
2024-04-24T19:03:38.657Z,8.95
2024-04-24T19:06:11.491Z,17.30
2024-04-24T19:08:41.551Z,13.38
2024-04-24T19:11:11.917Z,10.77
2024-04-24T19:13:42.011Z,10.02
2024-04-24T19:16:16.071Z,8.57
2024-04-24T19:18:46.212Z,11.90
2024-04-24T19:21:19.072Z,9.65
2024-04-24T19:23:52.775Z,8.25
2024-04-24T19:26:23.316Z,9.23
2024-04-24T19:28:53.541Z,10.10
2024-04-24T19:31:31.331Z,12.75
2024-04-24T19:34:04.393Z,7.95
2024-04-24T19:36:37.184Z,9.65
2024-04-24T19:39:07.303Z,7.70
2024-04-24T19:41:37.421Z,8.65
2024-04-24T19:44:08.669Z,8.77
2024-04-24T19:46:38.948Z,8.75
2024-04-24T19:49:09.052Z,8.00
2024-04-24T19:51:42.751Z,6.35
2024-04-24T19:54:13.745Z,7.85
2024-04-24T19:56:44.967Z,8.60
2024-04-24T19:59:15.132Z,7.22
2024-04-24T20:01:48.055Z,10.57
2024-04-24T20:04:18.790Z,8.70
2024-04-24T20:06:51.524Z,7.43
2024-04-24T20:09:21.708Z,7.30
2024-04-24T20:11:51.964Z,7.45
2024-04-24T20:14:22.150Z,7.22
2024-04-24T20:16:52.388Z,9.00
2024-04-24T20:19:22.862Z,7.53
2024-04-24T20:21:56.442Z,7.00
2024-04-24T20:24:26.823Z,10.55
2024-04-24T20:26:58.880Z,6.72
2024-04-24T20:29:34.512Z,10.02
2024-04-24T20:32:06.479Z,7.90
2024-04-24T20:34:36.929Z,8.60
2024-04-24T20:37:09.979Z,8.18
2024-04-24T20:39:43.563Z,12.02
2024-04-24T20:42:16.947Z,10.57
2024-04-24T20:44:47.158Z,7.35
2024-04-24T20:47:17.663Z,8.05
2024-04-24T20:49:48.038Z,9.70
2024-04-24T20:52:21.198Z,9.48
2024-04-24T20:54:51.548Z,9.77
2024-04-24T20:57:21.779Z,8.80
2024-04-24T20:59:56.324Z,6.88
2024-04-24T21:02:27.981Z,7.95
2024-04-24T21:04:58.500Z,7.55
2024-04-24T21:07:31.441Z,7.60
2024-04-24T21:10:01.947Z,10.07
2024-04-24T21:12:32.153Z,9.98
2024-04-24T21:15:04.428Z,8.48
2024-04-24T21:17:34.765Z,9.27
2024-04-24T21:20:05.316Z,9.80
2024-04-24T21:22:41.893Z,10.90
2024-04-24T21:25:12.161Z,9.90
2024-04-24T21:27:42.388Z,14.07
2024-04-24T21:30:13.875Z,9.57
2024-04-24T21:32:44.249Z,9.55
2024-04-24T21:35:14.532Z,13.73
2024-04-24T21:37:47.533Z,15.75
2024-04-24T21:40:18.002Z,16.55
2024-04-24T21:42:48.411Z,17.73
2024-04-24T21:45:18.901Z,13.50
2024-04-24T21:47:47.106Z,12.30
2024-04-24T21:50:17.593Z,13.82
2024-04-24T21:52:50.569Z,14.10
2024-04-24T21:55:20.824Z,11.57
2024-04-24T21:57:51.329Z,8.90
2024-04-24T22:00:21.608Z,11.45
2024-04-24T22:02:51.842Z,10.15
2024-04-24T22:05:22.279Z,13.50
2024-04-24T22:07:55.199Z,14.30
2024-04-24T22:10:25.480Z,11.32
2024-04-24T22:12:53.016Z,11.65
2024-04-24T22:15:23.439Z,11.27
2024-04-24T22:17:54.049Z,11.32
2024-04-24T22:20:24.210Z,10.98
2024-04-24T22:22:57.507Z,11.65
2024-04-24T22:25:27.799Z,12.35
2024-04-24T22:27:57.922Z,11.20
2024-04-24T22:30:29.799Z,10.75
2024-04-24T22:33:02.989Z,10.50
2024-04-24T22:35:33.315Z,11.98
2024-04-24T22:38:06.293Z,12.60
2024-04-24T22:40:36.633Z,16.00
2024-04-24T22:43:07.040Z,12.80
2024-04-24T22:45:37.314Z,14.82
2024-04-24T22:48:08.262Z,13.73
2024-04-24T22:50:38.741Z,12.05
2024-04-24T22:53:14.038Z,15.10
2024-04-24T22:55:44.575Z,16.67
2024-04-24T22:58:14.768Z,14.48
2024-04-24T23:00:45.391Z,15.43
2024-04-24T23:03:15.772Z,18.77
2024-04-24T23:05:46.243Z,16.73
2024-04-24T23:08:24.759Z,18.45
2024-04-24T23:10:54.968Z,21.65
2024-04-24T23:13:25.220Z,18.33
2024-04-24T23:15:55.960Z,20.00
2024-04-24T23:18:27.839Z,14.18
2024-04-24T23:21:01.041Z,19.75
2024-04-24T23:23:34.014Z,16.42
2024-04-24T23:26:01.794Z,20.88
2024-04-24T23:28:32.218Z,27.05
2024-04-24T23:31:02.634Z,16.25
2024-04-24T23:33:32.872Z,18.98
2024-04-24T23:36:06.781Z,18.70
2024-04-24T23:38:40.199Z,16.67
2024-04-24T23:41:16.064Z,19.35
2024-04-24T23:43:47.872Z,18.45
2024-04-24T23:46:21.907Z,19.23
2024-04-24T23:48:53.468Z,19.45
2024-04-24T23:51:23.747Z,16.55
2024-04-24T23:53:57.278Z,17.88
2024-04-24T23:56:27.994Z,16.75
2024-04-24T23:58:58.681Z,23.52
